Time;durP1;ratioP1;P1;durP2;ratioP2;P2;SDS_P1;SDS_P2;PMS_P1;PMS_P2;Temp;Humidity;BMP_temperature;BMP_pressure;BME280_temperature;BME280_humidity;BME280_pressure;Samples;Min_cycle;Max_cycle;Signal;HPM_P1;HPM_P2
2021/11/24 00:01:08;;;;;;;226.05;57.22;;;;;;;4.40;100.00;102713.31;5125802;27;20055;-73
2021/11/24 00:03:33;;;;;;;67.72;51.05;;;;;;;4.36;100.00;102703.47;5125105;27;20047;-74
2021/11/24 00:05:59;;;;;;;170.32;55.80;;;;;;;4.29;100.00;102706.53;5124830;27;20032;-72
2021/11/24 00:08:25;;;;;;;94.88;49.55;;;;;;;4.30;100.00;102701.38;5126225;27;20031;-75
2021/11/24 00:10:50;;;;;;;86.03;49.47;;;;;;;4.25;100.00;102696.66;5124159;27;20152;-79
2021/11/24 00:13:16;;;;;;;161.02;52.58;;;;;;;4.15;100.00;102696.13;5126878;27;20493;-83
2021/11/24 00:15:41;;;;;;;150.13;49.08;;;;;;;4.04;100.00;102697.19;5124541;27;20115;-72
2021/11/24 00:18:07;;;;;;;142.93;50.90;;;;;;;4.02;100.00;102696.22;5125872;27;20045;-74
2021/11/24 00:20:33;;;;;;;253.70;55.78;;;;;;;3.93;100.00;102696.56;5127058;27;20049;-68
2021/11/24 00:22:58;;;;;;;155.93;50.80;;;;;;;3.96;100.00;102696.75;5110700;27;20036;-72
2021/11/24 00:25:24;;;;;;;169.00;52.42;;;;;;;3.92;100.00;102696.47;5128515;27;20019;-70
2021/11/24 00:27:49;;;;;;;158.40;53.10;;;;;;;3.90;100.00;102690.22;5124649;27;20564;-68
2021/11/24 00:30:15;;;;;;;228.30;53.53;;;;;;;3.85;100.00;102689.94;5128389;27;20148;-67
2021/11/24 00:32:41;;;;;;;144.60;46.45;;;;;;;3.92;100.00;102686.88;5125370;27;20027;-72
2021/11/24 00:35:07;;;;;;;115.18;48.05;;;;;;;3.96;100.00;102695.81;5133948;27;20021;-69
2021/11/24 00:37:33;;;;;;;108.93;48.50;;;;;;;3.97;100.00;102697.63;5147227;27;20075;-71
2021/11/24 00:39:58;;;;;;;107.00;47.15;;;;;;;4.01;100.00;102695.28;5144602;27;20023;-67
2021/11/24 00:42:24;;;;;;;84.13;48.25;;;;;;;4.03;100.00;102681.41;5147376;27;20214;-73
2021/11/24 00:44:49;;;;;;;93.60;48.90;;;;;;;4.00;100.00;102689.97;5143987;27;20015;-67
2021/11/24 00:47:15;;;;;;;73.43;51.20;;;;;;;3.99;100.00;102690.75;5147526;27;20023;-69
2021/11/24 00:49:40;;;;;;;85.68;52.78;;;;;;;3.96;100.00;102686.25;5145054;27;20091;-71
2021/11/24 00:52:08;;;;;;;63.22;51.22;;;;;;;4.00;100.00;102676.88;5141287;27;20024;-71
2021/11/24 00:54:33;;;;;;;57.50;50.30;;;;;;;3.98;100.00;102689.88;5124813;27;20102;-76
2021/11/24 00:56:58;;;;;;;55.50;49.38;;;;;;;3.96;100.00;102686.25;5123762;27;20535;-74
2021/11/24 00:59:24;;;;;;;53.80;47.90;;;;;;;4.06;100.00;102684.19;5126313;27;20046;-75
2021/11/24 01:01:49;;;;;;;57.65;51.38;;;;;;;4.05;100.00;102688.53;5122301;27;20057;-75
2021/11/24 01:04:15;;;;;;;66.63;56.40;;;;;;;4.12;100.00;102688.09;5126030;27;20019;-70
2021/11/24 01:06:40;;;;;;;64.18;55.05;;;;;;;4.21;100.00;102686.81;5123529;27;20070;-76
2021/11/24 01:09:05;;;;;;;73.38;53.20;;;;;;;4.23;100.00;102679.97;5124246;27;20020;-73
2021/11/24 01:11:31;;;;;;;61.28;53.45;;;;;;;4.20;100.00;102680.69;5124784;27;20042;-74
2021/11/24 01:13:57;;;;;;;58.35;49.72;;;;;;;4.30;100.00;102663.81;5104909;27;20016;-71
2021/11/24 01:16:22;;;;;;;54.50;48.70;;;;;;;4.33;100.00;102671.84;5125677;27;20023;-75
2021/11/24 01:18:48;;;;;;;55.75;49.75;;;;;;;4.32;100.00;102670.03;5121668;27;20103;-70
2021/11/24 01:21:13;;;;;;;55.67;49.78;;;;;;;4.34;100.00;102671.06;5124905;27;20067;-77
2021/11/24 01:23:39;;;;;;;57.40;51.22;;;;;;;4.38;100.00;102662.53;5123258;27;20023;-73
2021/11/24 01:26:04;;;;;;;56.60;50.42;;;;;;;4.35;100.00;102660.66;5124102;27;20020;-69
2021/11/24 01:28:30;;;;;;;56.40;50.40;;;;;;;4.39;100.00;102651.25;5124611;27;20055;-67
2021/11/24 01:30:55;;;;;;;58.17;51.88;;;;;;;4.46;100.00;102660.38;5122376;27;20031;-74
2021/11/24 01:33:20;;;;;;;62.10;55.33;;;;;;;4.55;100.00;102663.53;5125884;27;20102;-73
2021/11/24 01:35:46;;;;;;;61.38;54.47;;;;;;;4.60;100.00;102661.16;5122004;27;20473;-71
2021/11/24 01:38:11;;;;;;;62.92;55.33;;;;;;;4.61;100.00;102652.50;5124706;27;20432;-75
2021/11/24 01:40:37;;;;;;;67.82;58.10;;;;;;;4.63;100.00;102650.88;5123020;27;20019;-68
2021/11/24 01:43:05;;;;;;;63.95;57.03;;;;;;;4.63;100.00;102656.09;5123498;27;20128;-70
2021/11/24 01:45:30;;;;;;;63.25;56.45;;;;;;;4.59;100.00;102652.41;5124485;27;20024;-69
2021/11/24 01:47:56;;;;;;;61.17;54.47;;;;;;;4.56;100.00;102648.72;5122104;27;20156;-68
2021/11/24 01:50:21;;;;;;;59.55;53.08;;;;;;;4.57;100.00;102647.91;5125399;27;20038;-69
2021/11/24 01:52:47;;;;;;;57.50;50.75;;;;;;;4.54;100.00;102649.53;5121873;27;20459;-67
2021/11/24 01:55:14;;;;;;;58.08;51.78;;;;;;;4.56;100.00;102648.72;5126142;27;20130;-70
2021/11/24 01:57:41;;;;;;;56.05;49.97;;;;;;;4.60;100.00;102645.44;5137741;27;20103;-75
2021/11/24 02:00:08;;;;;;;54.70;48.78;;;;;;;4.60;100.00;102640.22;5123880;28;20406;-74
2021/11/24 02:02:34;;;;;;;55.75;49.42;;;;;;;4.61;100.00;102644.66;5123353;28;20515;-74
2021/11/24 02:04:59;;;;;;;54.85;48.50;;;;;;;4.67;100.00;102631.91;5122514;28;20051;-74
2021/11/24 02:07:24;;;;;;;55.22;49.22;;;;;;;4.66;100.00;102641.47;5124902;28;20072;-75
2021/11/24 02:09:50;;;;;;;57.80;51.50;;;;;;;4.69;100.00;102632.91;5121502;28;20055;-74
2021/11/24 02:12:16;;;;;;;59.70;53.25;;;;;;;4.70;100.00;102626.81;5124531;28;20058;-75
2021/11/24 02:14:43;;;;;;;60.15;52.95;;;;;;;4.71;100.00;102628.63;5122805;28;20450;-73
2021/11/24 02:17:10;;;;;;;61.10;53.80;;;;;;;4.69;100.00;102625.03;5123510;28;20015;-75
2021/11/24 02:19:36;;;;;;;59.45;51.92;;;;;;;4.71;100.00;102621.66;5123129;28;20488;-74
2021/11/24 02:22:03;;;;;;;57.35;51.15;;;;;;;4.73;100.00;102624.38;5122649;28;20203;-75
2021/11/24 02:24:31;;;;;;;56.35;50.35;;;;;;;4.74;100.00;102623.56;5124061;28;20131;-77
2021/11/24 02:26:57;;;;;;;55.38;49.40;;;;;;;4.72;100.00;102607.75;5121764;28;20020;-77
2021/11/24 02:29:23;;;;;;;53.22;47.50;;;;;;;4.71;100.00;102613.81;5125016;28;20027;-75
2021/11/24 02:31:53;;;;;;;54.92;48.90;;;;;;;4.68;100.00;102612.75;5124977;27;20077;-76
2021/11/24 02:34:19;;;;;;;53.33;47.63;;;;;;;4.70;100.00;102611.09;5121114;27;20028;-77
2021/11/24 02:36:46;;;;;;;52.92;47.00;;;;;;;4.69;100.00;102601.47;5128606;27;20111;-77
2021/11/24 02:39:12;;;;;;;53.08;47.28;;;;;;;4.68;100.00;102607.50;5126511;27;20031;-77
2021/11/24 02:41:38;;;;;;;53.80;48.00;;;;;;;4.68;100.00;102610.13;5126923;27;20480;-76
2021/11/24 02:44:17;;;;;;;50.95;45.35;;;;;;;4.69;100.00;102607.59;5127440;27;20023;-76
2021/11/24 02:46:42;;;;;;;49.28;44.10;;;;;;;4.64;100.00;102590.69;5127937;27;20555;-76
2021/11/24 02:49:08;;;;;;;48.63;42.38;;;;;;;4.63;100.00;102593.22;5126638;27;20058;-76
2021/11/24 02:51:33;;;;;;;55.75;45.42;;;;;;;4.58;100.00;102590.34;5126574;27;20031;-75
2021/11/24 02:53:58;;;;;;;63.90;53.97;;;;;;;4.54;100.00;102581.44;5128163;27;20026;-75
2021/11/24 02:56:24;;;;;;;57.75;50.03;;;;;;;4.48;100.00;102582.78;5125142;27;20039;-77
2021/11/24 02:58:49;;;;;;;62.28;51.25;;;;;;;4.40;100.00;102573.59;5128541;27;20034;-76
2021/11/24 03:01:14;;;;;;;61.60;52.53;;;;;;;4.39;100.00;102583.16;5125255;27;20039;-77
2021/11/24 03:03:40;;;;;;;59.75;51.53;;;;;;;4.37;100.00;102563.88;5127002;27;20054;-80
2021/11/24 03:06:05;;;;;;;63.42;53.90;;;;;;;4.31;100.00;102560.88;5126762;27;20031;-78
2021/11/24 03:08:30;;;;;;;68.47;55.15;;;;;;;4.29;100.00;102559.91;5125660;27;20030;-72
2021/11/24 03:10:56;;;;;;;68.57;57.85;;;;;;;4.30;100.00;102553.84;5127703;27;20076;-69
2021/11/24 03:13:21;;;;;;;65.10;56.78;;;;;;;4.29;100.00;102552.94;5124994;27;20378;-73
2021/11/24 03:15:47;;;;;;;65.75;58.08;;;;;;;4.33;100.00;102551.41;5127941;27;20035;-69
2021/11/24 03:18:12;;;;;;;68.25;58.63;;;;;;;4.25;100.00;102537.88;5125413;27;20020;-68
2021/11/24 03:20:37;;;;;;;65.30;55.15;;;;;;;4.18;100.00;102546.19;5126618;27;20381;-71
2021/11/24 03:23:03;;;;;;;69.78;57.70;;;;;;;4.17;100.00;102540.03;5126542;27;20046;-73
2021/11/24 03:25:28;;;;;;;71.97;57.88;;;;;;;4.17;100.00;102529.56;5124969;27;20027;-69
2021/11/24 03:27:54;;;;;;;84.35;64.05;;;;;;;4.21;100.00;102529.75;5127786;27;20027;-71
2021/11/24 03:30:23;;;;;;;82.32;66.32;;;;;;;4.25;100.00;102535.28;5124193;27;20023;-71
2021/11/24 03:32:50;;;;;;;76.13;63.72;;;;;;;4.27;100.00;102524.88;5127729;27;20473;-68
2021/11/24 03:35:17;;;;;;;73.60;60.35;;;;;;;4.23;100.00;102528.13;5124776;27;20062;-70
2021/11/24 03:37:44;;;;;;;78.45;63.50;;;;;;;4.28;100.00;102521.44;5126746;27;20023;-71
2021/11/24 03:40:12;;;;;;;76.07;63.08;;;;;;;4.38;100.00;102520.25;5125223;27;20023;-73
2021/11/24 03:42:41;;;;;;;77.47;63.85;;;;;;;4.40;100.00;102523.84;5125489;27;20119;-72
2021/11/24 03:45:08;;;;;;;77.70;63.15;;;;;;;4.48;100.00;102518.22;5125765;27;20102;-73
2021/11/24 03:47:33;;;;;;;89.25;64.18;;;;;;;4.50;100.00;102511.34;5125228;27;20084;-71
2021/11/24 03:49:59;;;;;;;77.60;60.80;;;;;;;4.51;100.00;102507.94;5126846;27;20023;-69
2021/11/24 03:52:24;;;;;;;75.43;61.58;;;;;;;4.55;100.00;102506.38;5105523;28;20020;-71
2021/11/24 03:54:49;;;;;;;86.78;64.18;;;;;;;4.60;100.00;102517.09;5127274;27;20423;-69
2021/11/24 03:57:15;;;;;;;80.32;62.50;;;;;;;4.59;100.00;102504.81;5124368;27;20419;-72
2021/11/24 03:59:40;;;;;;;83.88;62.38;;;;;;;4.62;100.00;102505.88;5126023;27;20453;-69
2021/11/24 04:02:06;;;;;;;78.75;61.63;;;;;;;4.68;100.00;102500.97;5125746;27;20027;-69
2021/11/24 04:04:31;;;;;;;85.97;62.80;;;;;;;4.70;100.00;102503.69;5124457;27;20543;-68
2021/11/24 04:06:57;;;;;;;82.50;60.47;;;;;;;4.75;100.00;102503.94;5126990;27;20019;-67
2021/11/24 04:09:22;;;;;;;79.03;61.45;;;;;;;4.76;100.00;102501.44;5123721;27;20080;-67
2021/11/24 04:11:47;;;;;;;84.63;60.10;;;;;;;4.77;100.00;102497.97;5126846;27;20026;-71
2021/11/24 04:14:13;;;;;;;88.68;59.83;;;;;;;4.81;100.00;102494.69;5124235;27;20027;-68
2021/11/24 04:16:38;;;;;;;129.88;68.07;;;;;;;4.80;100.00;102492.88;5125492;27;20024;-70
2021/11/24 04:19:04;;;;;;;104.13;68.95;;;;;;;4.81;100.00;102489.44;5125610;27;20025;-70
2021/11/24 04:21:30;;;;;;;104.97;69.82;;;;;;;4.83;100.00;102493.03;5123957;27;20058;-69
2021/11/24 04:23:56;;;;;;;88.65;64.57;;;;;;;4.88;100.00;102488.97;5126791;27;20130;-68
2021/11/24 04:26:22;;;;;;;93.00;65.40;;;;;;;4.91;100.00;102480.38;5123385;27;20028;-67
2021/11/24 04:28:48;;;;;;;105.20;65.95;;;;;;;4.89;100.00;102484.63;5126232;27;20037;-67
2021/11/24 04:31:13;;;;;;;94.32;63.50;;;;;;;4.89;100.00;102482.91;5124162;27;20098;-68
2021/11/24 04:33:38;;;;;;;103.97;66.30;;;;;;;4.88;100.00;102478.50;5124933;27;20019;-68
2021/11/24 04:36:05;;;;;;;140.23;69.93;;;;;;;4.87;100.00;102474.06;5106764;27;20027;-71
2021/11/24 04:38:31;;;;;;;92.93;62.92;;;;;;;4.92;100.00;102478.66;5123979;27;20019;-72
2021/11/24 04:40:56;;;;;;;116.63;63.92;;;;;;;4.89;100.00;102475.06;5125958;27;20488;-69
2021/11/24 04:43:27;;;;;;;112.18;61.88;;;;;;;4.88;100.00;102468.00;5104714;28;20028;-67
2021/11/24 04:45:52;;;;;;;93.70;59.92;;;;;;;4.93;100.00;102464.72;5119261;27;20082;-71
2021/11/24 04:48:17;;;;;;;144.55;67.50;;;;;;;4.93;100.00;102469.97;5126062;27;20046;-72
2021/11/24 04:50:43;;;;;;;189.00;72.30;;;;;;;4.89;100.00;102469.81;5123671;27;20020;-68
2021/11/24 04:53:08;;;;;;;172.57;74.90;;;;;;;4.93;100.00;102467.34;5124828;27;20063;-69
2021/11/24 04:55:34;;;;;;;113.90;71.53;;;;;;;4.94;100.00;102469.16;5124871;27;20470;-67
2021/11/24 04:58:00;;;;;;;130.75;73.63;;;;;;;4.92;100.00;102468.16;5123320;27;20023;-70
2021/11/24 05:00:25;;;;;;;119.45;72.10;;;;;;;4.95;100.00;102466.63;5125884;27;20031;-70
2021/11/24 05:02:52;;;;;;;218.18;78.57;;;;;;;4.91;100.00;102463.72;5123004;27;20504;-74
2021/11/24 05:05:22;;;;;;;197.38;74.22;;;;;;;4.89;100.00;102461.94;5127770;27;20459;-77
2021/11/24 05:07:48;;;;;;;142.90;72.72;;;;;;;4.88;100.00;102454.91;5124655;27;20088;-76
2021/11/24 05:10:13;;;;;;;115.90;70.10;;;;;;;4.92;100.00;102453.31;5127246;27;20486;-76
2021/11/24 05:12:39;;;;;;;129.73;71.78;;;;;;;4.92;100.00;102460.31;5126183;27;20027;-76
2021/11/24 05:15:06;;;;;;;137.25;72.53;;;;;;;4.92;100.00;102452.44;5124218;27;20016;-78
2021/11/24 05:17:32;;;;;;;213.90;76.55;;;;;;;4.87;100.00;102454.81;5124944;27;20365;-81
2021/11/24 05:19:58;;;;;;;151.73;74.55;;;;;;;4.88;100.00;102452.28;5122670;27;20531;-79
2021/11/24 05:22:24;;;;;;;178.30;78.65;;;;;;;4.88;100.00;102449.66;5126328;27;20030;-73
2021/11/24 05:24:50;;;;;;;182.73;77.07;;;;;;;4.88;100.00;102443.53;5127215;27;20015;-68
2021/11/24 05:27:15;;;;;;;167.52;76.28;;;;;;;4.86;100.00;102439.91;5137202;27;20050;-67
2021/11/24 05:29:41;;;;;;;205.43;79.82;;;;;;;4.91;100.00;102448.00;5123210;27;20034;-72
2021/11/24 05:32:07;;;;;;;247.93;82.15;;;;;;;4.89;100.00;102441.00;5123633;27;20046;-72
2021/11/24 05:34:32;;;;;;;312.85;87.43;;;;;;;4.87;100.00;102442.59;5124650;27;20470;-71
2021/11/24 05:36:57;;;;;;;184.20;84.38;;;;;;;4.88;100.00;102438.28;5122388;27;20019;-68
2021/11/24 05:39:23;;;;;;;237.52;87.40;;;;;;;4.85;100.00;102436.41;5125535;27;20470;-72
2021/11/24 05:41:48;;;;;;;229.00;86.45;;;;;;;4.87;100.00;102436.47;5122086;27;20027;-74
2021/11/24 05:44:21;;;;;;;180.20;82.35;;;;;;;4.84;100.00;102437.22;5124537;27;20080;-67
2021/11/24 05:46:54;;;;;;;172.40;82.72;;;;;;;4.82;100.00;102433.63;5122411;27;20024;-76
2021/11/24 05:49:21;;;;;;;249.93;88.72;;;;;;;4.80;100.00;102430.00;5125619;27;20023;-70
2021/11/24 05:51:47;;;;;;;148.93;79.90;;;;;;;4.83;100.00;102424.91;5122137;27;20020;-75
2021/11/24 05:54:12;;;;;;;250.70;85.28;;;;;;;4.78;100.00;102429.03;5124230;27;20423;-71
2021/11/24 05:56:39;;;;;;;241.15;81.95;;;;;;;4.76;100.00;102417.56;5123577;27;20023;-68
2021/11/24 05:59:09;;;;;;;124.88;78.88;;;;;;;4.79;100.00;102417.75;5122839;27;20387;-70
2021/11/24 06:01:35;;;;;;;267.75;84.90;;;;;;;4.77;100.00;102415.84;5105298;28;20389;-70
2021/11/24 06:04:02;;;;;;;246.25;84.22;;;;;;;4.78;100.00;102413.31;5122347;28;20538;-69
2021/11/24 06:06:27;;;;;;;274.85;90.80;;;;;;;4.76;100.00;102416.66;5124515;27;20114;-70
2021/11/24 06:08:53;;;;;;;165.70;84.43;;;;;;;4.75;100.00;102417.47;5121547;28;20145;-68
2021/11/24 06:11:19;;;;;;;145.02;84.00;;;;;;;4.74;100.00;102418.31;5124811;28;20107;-68
2021/11/24 06:13:44;;;;;;;140.73;86.25;;;;;;;4.74;100.00;102408.72;5122341;28;20084;-70
2021/11/24 06:16:09;;;;;;;129.68;82.20;;;;;;;4.74;100.00;102408.72;5123149;28;20016;-69
2021/11/24 06:18:35;;;;;;;122.60;86.10;;;;;;;4.76;100.00;102394.00;5123890;28;20098;-69
2021/11/24 06:21:00;;;;;;;130.82;86.03;;;;;;;4.74;100.00;102402.59;5122134;28;20034;-68
2021/11/24 06:23:25;;;;;;;128.98;84.93;;;;;;;4.76;100.00;102407.09;5124924;28;20024;-68
2021/11/24 06:25:51;;;;;;;118.30;82.30;;;;;;;4.76;100.00;102401.84;5117612;28;20053;-69
2021/11/24 06:28:16;;;;;;;118.47;82.57;;;;;;;4.76;100.00;102395.69;5124204;28;20068;-68
2021/11/24 06:30:42;;;;;;;120.05;84.68;;;;;;;4.79;100.00;102396.78;5122350;28;20023;-69
2021/11/24 06:33:07;;;;;;;122.15;86.05;;;;;;;4.79;100.00;102394.16;5123052;28;20102;-69
2021/11/24 06:35:33;;;;;;;120.00;82.68;;;;;;;4.82;100.00;102394.31;5123722;28;20019;-69
2021/11/24 06:37:58;;;;;;;122.90;83.15;;;;;;;4.82;100.00;102391.69;5121978;28;20028;-69
2021/11/24 06:40:24;;;;;;;128.98;88.22;;;;;;;4.82;100.00;102386.44;5124575;28;20368;-74
2021/11/24 06:42:49;;;;;;;125.40;87.53;;;;;;;4.83;100.00;102393.47;5121655;28;20403;-71
2021/11/24 06:45:15;;;;;;;127.88;87.85;;;;;;;4.84;100.00;102395.28;5104850;28;20494;-74
2021/11/24 06:47:41;;;;;;;126.30;85.55;;;;;;;4.87;100.00;102398.06;5122541;28;20030;-72
2021/11/24 06:50:10;;;;;;;128.95;86.78;;;;;;;4.84;100.00;102394.38;5122635;28;20063;-73
2021/11/24 06:52:36;;;;;;;125.47;86.13;;;;;;;4.86;100.00;102392.72;5117441;28;20040;-67
2021/11/24 06:55:02;;;;;;;127.20;87.70;;;;;;;4.85;100.00;102391.84;5114395;28;20152;-68
2021/11/24 06:57:27;;;;;;;128.82;88.93;;;;;;;4.85;100.00;102394.47;5114101;28;20042;-67
2021/11/24 06:59:52;;;;;;;125.95;89.13;;;;;;;4.86;100.00;102401.53;5114715;28;20470;-65
2021/11/24 07:02:18;;;;;;;127.13;86.82;;;;;;;4.83;100.00;102396.09;5117772;28;20478;-66
2021/11/24 07:04:43;;;;;;;125.28;85.68;;;;;;;4.85;100.00;102397.09;5113413;28;20044;-66
2021/11/24 07:07:09;;;;;;;114.93;82.97;;;;;;;4.85;100.00;102386.59;5115405;28;20035;-66
2021/11/24 07:09:34;;;;;;;125.05;84.75;;;;;;;4.84;100.00;102389.16;5113800;28;20027;-67
2021/11/24 07:12:00;;;;;;;119.43;86.28;;;;;;;4.85;100.00;102386.59;5116059;28;20020;-66
2021/11/24 07:14:25;;;;;;;120.32;83.18;;;;;;;4.85;100.00;102385.72;5115765;28;20039;-66
2021/11/24 07:16:50;;;;;;;114.35;80.70;;;;;;;4.86;100.00;102388.41;5115999;27;20019;-66
2021/11/24 07:19:16;;;;;;;124.25;85.05;;;;;;;4.85;100.00;102383.09;5098733;28;20039;-65
2021/11/24 07:21:47;;;;;;;119.47;85.03;;;;;;;4.87;100.00;102390.19;5114064;27;20478;-65
2021/11/24 07:24:14;;;;;;;120.18;85.57;;;;;;;4.88;100.00;102388.50;5118923;27;20554;-64
2021/11/24 07:26:39;;;;;;;119.82;86.20;;;;;;;4.89;100.00;102382.41;5119881;27;20019;-66
2021/11/24 07:29:05;;;;;;;119.70;85.15;;;;;;;4.88;100.00;102384.16;5116851;27;20076;-66
2021/11/24 07:31:30;;;;;;;118.65;84.65;;;;;;;4.89;100.00;102382.41;5116719;27;20030;-65
2021/11/24 07:33:55;;;;;;;114.85;81.40;;;;;;;4.89;100.00;102379.78;5116298;27;20073;-64
2021/11/24 07:36:21;;;;;;;111.18;81.95;;;;;;;4.92;100.00;102376.44;5118739;27;20375;-65
2021/11/24 07:38:46;;;;;;;116.05;83.88;;;;;;;4.94;100.00;102385.28;5119804;27;20485;-66
2021/11/24 07:41:11;;;;;;;120.57;85.65;;;;;;;4.94;100.00;102385.28;5115972;27;20046;-64
2021/11/24 07:43:37;;;;;;;116.82;83.85;;;;;;;4.96;100.00;102389.78;5117243;27;20019;-66
2021/11/24 07:46:02;;;;;;;119.38;84.13;;;;;;;4.97;100.00;102380.22;5114864;27;20016;-65
2021/11/24 07:48:28;;;;;;;110.78;80.70;;;;;;;5.01;100.00;102383.06;5112451;28;20028;-66
2021/11/24 07:50:53;;;;;;;107.82;75.68;;;;;;;5.00;100.00;102380.38;5097903;27;20016;-66
2021/11/24 07:53:18;;;;;;;108.50;79.00;;;;;;;5.02;100.00;102386.56;5117411;27;20028;-66
2021/11/24 07:55:44;;;;;;;106.75;76.15;;;;;;;5.03;100.00;102380.53;5114398;27;20020;-66
2021/11/24 07:58:09;;;;;;;110.25;76.47;;;;;;;5.02;100.00;102379.63;5112531;27;20489;-65
2021/11/24 08:00:34;;;;;;;107.20;75.60;;;;;;;5.06;100.00;102380.66;5117001;27;20478;-66
2021/11/24 08:03:00;;;;;;;104.35;71.20;;;;;;;5.09;100.00;102378.22;5118285;27;20052;-65
2021/11/24 08:05:25;;;;;;;99.32;69.72;;;;;;;5.09;100.00;102370.34;5118348;27;20031;-66
2021/11/24 08:07:50;;;;;;;99.75;66.40;;;;;;;5.10;100.00;102366.91;5116275;27;20115;-67
2021/11/24 08:10:17;;;;;;;99.22;67.50;;;;;;;5.10;100.00;102366.00;5115116;27;20571;-66
2021/11/24 08:12:43;;;;;;;95.30;66.90;;;;;;;5.12;100.00;102357.38;5117435;27;20418;-65
2021/11/24 08:15:08;;;;;;;96.40;64.72;;;;;;;5.14;100.00;102366.25;5116112;27;20114;-66
2021/11/24 08:17:34;;;;;;;93.72;63.80;;;;;;;5.17;100.00;102362.84;5113979;27;20369;-65
2021/11/24 08:20:00;;;;;;;94.68;61.95;;;;;;;5.18;100.00;102355.06;5097146;28;20023;-69
2021/11/24 08:22:25;;;;;;;100.75;60.65;;;;;;;5.18;100.00;102355.06;5114010;27;20024;-70
2021/11/24 08:24:51;;;;;;;103.38;61.58;;;;;;;5.21;100.00;102349.09;5115163;27;20020;-67
2021/11/24 08:27:17;;;;;;;102.47;60.10;;;;;;;5.19;100.00;102346.38;5117792;27;20019;-69
2021/11/24 08:29:42;;;;;;;112.03;62.67;;;;;;;5.22;100.00;102341.28;5115040;27;20024;-67
2021/11/24 08:32:08;;;;;;;121.00;63.53;;;;;;;5.22;100.00;102337.78;5116218;27;20077;-69
2021/11/24 08:34:34;;;;;;;118.40;63.25;;;;;;;5.26;100.00;102336.19;5116180;27;20015;-70
2021/11/24 08:36:59;;;;;;;128.85;62.55;;;;;;;5.28;100.00;102334.56;5115831;27;20036;-69
2021/11/24 08:39:25;;;;;;;114.85;64.65;;;;;;;5.30;100.00;102328.59;5115812;27;20020;-70
2021/11/24 08:41:51;;;;;;;120.32;65.78;;;;;;;5.33;100.00;102327.81;5117804;27;20027;-69
2021/11/24 08:44:16;;;;;;;120.57;63.92;;;;;;;5.33;100.00;102327.81;5114412;27;20046;-70
2021/11/24 08:46:42;;;;;;;118.75;64.43;;;;;;;5.36;100.00;102321.00;5117944;27;20028;-73
2021/11/24 08:49:08;;;;;;;126.78;67.32;;;;;;;5.40;100.00;102324.66;5116610;27;20016;-71
2021/11/24 08:51:34;;;;;;;121.68;63.55;;;;;;;5.42;100.00;102328.28;5122425;27;20363;-77
2021/11/24 08:54:00;;;;;;;130.00;66.65;;;;;;;5.39;100.00;102318.53;5114590;27;20055;-71
2021/11/24 08:56:25;;;;;;;122.95;63.72;;;;;;;5.47;100.00;102331.13;5118734;27;20047;-75
2021/11/24 08:58:51;;;;;;;121.78;66.20;;;;;;;5.48;100.00;102333.81;5124249;27;20040;-71
2021/11/24 09:01:16;;;;;;;117.53;60.50;;;;;;;5.51;100.00;102328.72;5125377;27;20502;-70
2021/11/24 09:03:42;;;;;;;121.45;63.22;;;;;;;5.51;100.00;102327.84;5125873;27;20502;-70
2021/11/24 09:06:07;;;;;;;119.15;62.10;;;;;;;5.51;100.00;102333.09;5122353;27;20026;-73
2021/11/24 09:08:33;;;;;;;124.00;63.13;;;;;;;5.50;100.00;102326.91;5125691;27;20110;-75
2021/11/24 09:10:59;;;;;;;119.20;61.70;;;;;;;5.53;100.00;102332.34;5122731;27;20049;-71
2021/11/24 09:13:25;;;;;;;123.82;64.35;;;;;;;5.54;100.00;102328.88;5124831;27;20388;-70
2021/11/24 09:15:50;;;;;;;118.03;61.90;;;;;;;5.54;100.00;102326.25;5123678;27;20023;-76
2021/11/24 09:18:16;;;;;;;126.72;65.78;;;;;;;5.56;100.00;102324.63;5123587;27;20031;-79
2021/11/24 09:20:41;;;;;;;122.10;65.35;;;;;;;5.62;100.00;102330.97;5125016;27;20055;-78
2021/11/24 09:23:08;;;;;;;120.95;63.85;;;;;;;5.60;100.00;102317.78;5121911;27;20031;-76
2021/11/24 09:25:40;;;;;;;121.03;63.80;;;;;;;5.65;100.00;102325.88;5125886;27;20529;-71
2021/11/24 09:28:10;;;;;;;123.40;66.15;;;;;;;5.64;100.00;102313.59;5118306;27;20027;-79
2021/11/24 09:30:36;;;;;;;121.57;64.53;;;;;;;5.66;100.00;102312.81;5118323;27;20028;-70
2021/11/24 09:33:01;;;;;;;117.65;64.47;;;;;;;5.71;100.00;102315.69;5125670;27;20047;-72
2021/11/24 09:35:27;;;;;;;117.30;63.10;;;;;;;5.78;100.00;102303.75;5122552;27;20023;-73
2021/11/24 09:37:52;;;;;;;119.38;63.88;;;;;;;5.83;100.00;102304.88;5123938;27;20028;-70
2021/11/24 09:40:18;;;;;;;107.97;59.85;;;;;;;5.93;100.00;102302.72;5123417;27;20059;-69
2021/11/24 09:42:46;;;;;;;103.68;58.60;;;;;;;5.99;100.00;102290.78;5122527;27;20020;-70
2021/11/24 09:45:15;;;;;;;100.75;58.40;;;;;;;6.06;100.00;102293.72;5124583;27;20034;-69
2021/11/24 09:47:45;;;;;;;108.70;59.35;;;;;;;6.08;100.00;102299.06;5122503;27;20034;-69
2021/11/24 09:50:11;;;;;;;105.60;59.97;;;;;;;6.06;100.00;102287.59;5124922;27;20027;-69
2021/11/24 09:52:37;;;;;;;109.05;58.58;;;;;;;6.07;100.00;102284.13;5121750;27;20054;-69
2021/11/24 09:55:05;;;;;;;97.28;55.90;;;;;;;6.13;100.00;102276.53;5117951;28;20024;-70
2021/11/24 09:57:31;;;;;;;92.95;54.78;;;;;;;6.16;100.00;102268.81;5125063;27;20470;-71
2021/11/24 09:59:56;;;;;;;88.10;51.70;;;;;;;6.15;100.00;102267.00;5122624;27;20081;-73
2021/11/24 10:02:23;;;;;;;92.13;53.95;;;;;;;6.17;100.00;102260.06;5123744;28;20047;-71
2021/11/24 10:04:49;;;;;;;95.00;54.60;;;;;;;6.19;100.00;102257.50;5123187;28;20188;-73
2021/11/24 10:07:17;;;;;;;83.88;50.13;;;;;;;6.20;100.00;102254.97;5122354;28;20031;-73
2021/11/24 10:09:44;;;;;;;85.28;51.70;;;;;;;6.15;100.00;102260.88;5124760;28;20027;-73
2021/11/24 10:12:11;;;;;;;82.53;49.78;;;;;;;6.19;100.00;102263.69;5121998;28;20031;-74
2021/11/24 10:14:37;;;;;;;80.10;49.33;;;;;;;6.24;100.00;102270.03;5125085;28;20046;-74
2021/11/24 10:17:12;;;;;;;74.35;47.58;;;;;;;6.31;100.00;102263.34;5117376;28;20032;-73
2021/11/24 10:19:37;;;;;;;76.55;48.78;;;;;;;6.39;100.00;102246.19;5117947;28;20024;-74
2021/11/24 10:22:08;;;;;;;77.95;48.42;;;;;;;6.46;100.00;102252.59;5117472;28;20543;-67
2021/11/24 10:24:42;;;;;;;71.55;46.83;;;;;;;6.54;100.00;102250.28;5113282;28;20034;-67
2021/11/24 10:27:12;;;;;;;69.90;44.85;;;;;;;6.61;100.00;102247.09;5112341;28;20023;-67
2021/11/24 10:29:40;;;;;;;67.63;44.53;;;;;;;6.69;100.00;102231.69;5116634;28;20051;-69
2021/11/24 10:32:10;;;;;;;62.90;41.60;;;;;;;6.65;100.00;102230.63;5115271;28;20429;-68
2021/11/24 10:34:39;;;;;;;63.80;42.15;;;;;;;6.68;100.00;102220.25;5113942;28;20027;-68
2021/11/24 10:37:12;;;;;;;62.35;41.15;;;;;;;6.78;100.00;102230.31;5114067;28;20015;-73
2021/11/24 10:39:45;;;;;;;60.10;39.60;;;;;;;6.84;100.00;102223.53;5117848;28;20019;-72
2021/11/24 10:42:31;;;;;;;62.70;41.47;;;;;;;6.92;100.00;102206.34;5110653;28;20073;-69
2021/11/24 10:45:07;;;;;;;61.80;40.63;;;;;;;6.84;100.00;102203.38;5094120;28;20040;-71
2021/11/24 10:47:33;;;;;;;62.03;40.35;;;;;;;6.84;100.00;102190.25;5116406;28;20080;-69
2021/11/24 10:50:01;;;;;;;58.70;38.30;;;;;;;6.89;100.00;102191.34;5116250;28;20028;-73
2021/11/24 10:52:34;;;;;;;60.75;38.72;;;;;;;7.01;100.00;102185.69;5123176;27;20063;-67
2021/11/24 10:55:02;;;;;;;59.42;39.30;;;;;;;7.12;100.00;102187.00;5120105;27;20035;-69
2021/11/24 10:57:29;;;;;;;59.92;40.05;;;;;;;7.26;100.00;102170.88;5120630;27;20028;-69
2021/11/24 11:00:17;;;;;;;58.83;39.67;;;;;;;7.40;100.00;102169.69;5102653;28;20374;-75